AAL1510 KMIA-MYNN
Flight info
| Callsign | AAL1510 |
|---|---|
| Flight time | 0h 30m |
| Altitude | 21000 |
| Route | KLADA2 RAJAY |
| Aircraft | B38M/M-SDE1FGHILORVWXY/HB1 |
Departure
| Time | 2026-05-05 20:32 |
|---|---|
| Airport | Miami International Airport (KMIA) |
Arrival
| Time | 2026-05-05 21:02 |
|---|---|
| Airport | Lynden Pindling International Airport (MYNN) |
| Time | Latitude | Longitude | Altitude | Speed | Heading |
|---|---|---|---|---|---|
| 2026-05-05 19:58 | 25.79832 | -80.28165 | 19 ft | 0 kts | 178° |
| 2026-05-05 20:01 | 25.79840 | -80.28166 | 33 ft | 0 kts | 178° |
| 2026-05-05 20:17 | 25.79857 | -80.28166 | 18 ft | 3 kts | 178° |
| 2026-05-05 20:18 | 25.79879 | -80.28165 | 17 ft | 4 kts | 201° |
| 2026-05-05 20:18 | 25.79894 | -80.28148 | 16 ft | 4 kts | 259° |
| 2026-05-05 20:18 | 25.79896 | -80.28119 | 16 ft | 3 kts | 268° |
| 2026-05-05 20:18 | 25.79897 | -80.28095 | 16 ft | 0 kts | 268° |
| 2026-05-05 20:22 | 25.79896 | -80.28108 | 16 ft | 3 kts | 268° |
| 2026-05-05 20:23 | 25.79894 | -80.28165 | 16 ft | 13 kts | 267° |
| 2026-05-05 20:23 | 25.79889 | -80.28286 | 17 ft | 17 kts | 267° |
| 2026-05-05 20:23 | 25.79886 | -80.28350 | 18 ft | 5 kts | 267° |
| 2026-05-05 20:23 | 25.79894 | -80.28411 | 20 ft | 9 kts | 307° |
| 2026-05-05 20:24 | 25.79946 | -80.28501 | 19 ft | 20 kts | 269° |
| 2026-05-05 20:24 | 25.79938 | -80.28687 | 26 ft | 28 kts | 267° |
| 2026-05-05 20:24 | 25.79931 | -80.28858 | 25 ft | 24 kts | 268° |
| 2026-05-05 20:24 | 25.79923 | -80.29050 | 25 ft | 24 kts | 267° |
| 2026-05-05 20:25 | 25.79915 | -80.29254 | 22 ft | 28 kts | 268° |
| 2026-05-05 20:25 | 25.79907 | -80.29463 | 18 ft | 28 kts | 266° |
| 2026-05-05 20:25 | 25.79902 | -80.29586 | 17 ft | 17 kts | 268° |
| 2026-05-05 20:25 | 25.79904 | -80.29728 | 16 ft | 20 kts | 281° |
| 2026-05-05 20:26 | 25.79921 | -80.29790 | 15 ft | 1 kts | 297° |
| 2026-05-05 20:26 | 25.79929 | -80.29806 | 16 ft | 4 kts | 295° |
| 2026-05-05 20:26 | 25.79945 | -80.29849 | 16 ft | 7 kts | 292° |
| 2026-05-05 20:26 | 25.79966 | -80.29914 | 15 ft | 11 kts | 285° |
| 2026-05-05 20:27 | 25.79975 | -80.29952 | 14 ft | 5 kts | 285° |
| 2026-05-05 20:27 | 25.79976 | -80.29955 | 14 ft | 0 kts | 285° |
| 2026-05-05 20:29 | 25.79976 | -80.29957 | 14 ft | 2 kts | 285° |
| 2026-05-05 20:29 | 25.79986 | -80.29996 | 14 ft | 9 kts | 285° |
| 2026-05-05 20:29 | 25.80010 | -80.30091 | 17 ft | 15 kts | 293° |
| 2026-05-05 20:29 | 25.80065 | -80.30120 | 19 ft | 6 kts | 27° |
| 2026-05-05 20:30 | 25.80073 | -80.30090 | 16 ft | 6 kts | 87° |
| 2026-05-05 20:30 | 25.80073 | -80.30086 | 16 ft | 0 kts | 87° |
| 2026-05-05 20:31 | 25.80074 | -80.30077 | 16 ft | 8 kts | 87° |
| 2026-05-05 20:31 | 25.80089 | -80.29707 | 16 ft | 87 kts | 87° |
| 2026-05-05 20:31 | 25.80128 | -80.28788 | 23 ft | 151 kts | 87° |
| 2026-05-05 20:31 | 25.80188 | -80.27474 | 383 ft | 179 kts | 85° |
| 2026-05-05 20:32 | 25.80296 | -80.26089 | 1219 ft | 179 kts | 84° |
| 2026-05-05 20:32 | 25.80075 | -80.24686 | 1795 ft | 202 kts | 117° |
| 2026-05-05 20:32 | 25.79329 | -80.23269 | 2322 ft | 223 kts | 117° |
| 2026-05-05 20:32 | 25.78554 | -80.21678 | 2778 ft | 248 kts | 117° |
| 2026-05-05 20:33 | 25.77743 | -80.19966 | 3784 ft | 245 kts | 117° |
| 2026-05-05 20:33 | 25.76925 | -80.18234 | 4550 ft | 263 kts | 118° |
| 2026-05-05 20:33 | 25.76005 | -80.16394 | 5227 ft | 281 kts | 119° |
| 2026-05-05 20:33 | 25.75053 | -80.14479 | 6153 ft | 285 kts | 119° |
| 2026-05-05 20:34 | 25.74089 | -80.12528 | 7048 ft | 291 kts | 119° |
| 2026-05-05 20:34 | 25.73182 | -80.10528 | 7922 ft | 297 kts | 111° |
| 2026-05-05 20:34 | 25.72494 | -80.08318 | 8808 ft | 303 kts | 110° |
| 2026-05-05 20:34 | 25.71798 | -80.06120 | 9667 ft | 309 kts | 110° |
| 2026-05-05 20:35 | 25.71063 | -80.03855 | 10420 ft | 318 kts | 111° |
| 2026-05-05 20:35 | 25.70281 | -80.01477 | 10863 ft | 337 kts | 111° |
| 2026-05-05 20:35 | 25.69457 | -79.98996 | 11422 ft | 350 kts | 111° |
| 2026-05-05 20:35 | 25.68604 | -79.96440 | 12145 ft | 355 kts | 111° |
| 2026-05-05 20:36 | 25.67740 | -79.93859 | 12931 ft | 360 kts | 111° |
| 2026-05-05 20:36 | 25.66861 | -79.91233 | 13680 ft | 366 kts | 111° |
| 2026-05-05 20:36 | 25.65967 | -79.88565 | 14390 ft | 371 kts | 111° |
| 2026-05-05 20:36 | 25.65064 | -79.85872 | 15087 ft | 375 kts | 110° |
| 2026-05-05 20:37 | 25.64149 | -79.83149 | 15782 ft | 379 kts | 110° |
| 2026-05-05 20:37 | 25.63224 | -79.80395 | 16456 ft | 384 kts | 110° |
| 2026-05-05 20:37 | 25.62287 | -79.77610 | 17115 ft | 388 kts | 110° |
| 2026-05-05 20:37 | 25.61339 | -79.74791 | 17762 ft | 392 kts | 110° |
| 2026-05-05 20:38 | 25.60381 | -79.71945 | 18405 ft | 396 kts | 109° |
| 2026-05-05 20:38 | 25.59517 | -79.69031 | 18931 ft | 400 kts | 104° |
| 2026-05-05 20:38 | 25.58786 | -79.66082 | 19453 ft | 404 kts | 104° |
| 2026-05-05 20:38 | 25.58021 | -79.63070 | 19973 ft | 408 kts | 104° |
| 2026-05-05 20:39 | 25.57238 | -79.60031 | 20512 ft | 411 kts | 105° |
| 2026-05-05 20:39 | 25.56444 | -79.56966 | 20908 ft | 418 kts | 105° |
| 2026-05-05 20:39 | 25.55636 | -79.53857 | 20987 ft | 425 kts | 105° |
| 2026-05-05 20:39 | 25.54813 | -79.50692 | 20992 ft | 430 kts | 105° |
| 2026-05-05 20:40 | 25.53982 | -79.47503 | 21009 ft | 431 kts | 105° |
| 2026-05-05 20:40 | 25.53148 | -79.44302 | 21017 ft | 432 kts | 105° |
| 2026-05-05 20:40 | 25.52313 | -79.41106 | 21018 ft | 432 kts | 105° |
| 2026-05-05 20:40 | 25.51479 | -79.37911 | 21018 ft | 432 kts | 105° |
| 2026-05-05 20:41 | 25.50644 | -79.34716 | 21018 ft | 432 kts | 105° |
| 2026-05-05 20:41 | 25.49808 | -79.31522 | 21018 ft | 432 kts | 105° |
| 2026-05-05 20:41 | 25.48971 | -79.28328 | 21018 ft | 432 kts | 105° |
| 2026-05-05 20:41 | 25.48134 | -79.25136 | 21015 ft | 432 kts | 105° |
| 2026-05-05 20:42 | 25.47297 | -79.21949 | 21015 ft | 432 kts | 105° |
| 2026-05-05 20:42 | 25.46457 | -79.18751 | 21015 ft | 432 kts | 105° |
| 2026-05-05 20:42 | 25.45620 | -79.15567 | 21015 ft | 432 kts | 105° |
| 2026-05-05 20:42 | 25.44778 | -79.12370 | 21015 ft | 432 kts | 105° |
| 2026-05-05 20:43 | 25.43937 | -79.09178 | 21015 ft | 432 kts | 105° |
| 2026-05-05 20:43 | 25.43095 | -79.05988 | 21015 ft | 432 kts | 105° |
| 2026-05-05 20:43 | 25.42253 | -79.02798 | 21016 ft | 432 kts | 105° |
| 2026-05-05 20:43 | 25.41420 | -78.99643 | 21018 ft | 420 kts | 105° |
| 2026-05-05 20:44 | 25.40611 | -78.96588 | 21019 ft | 406 kts | 105° |
| 2026-05-05 20:44 | 25.39842 | -78.93680 | 21023 ft | 397 kts | 105° |
| 2026-05-05 20:44 | 25.39065 | -78.90749 | 21013 ft | 396 kts | 105° |
| 2026-05-05 20:44 | 25.38292 | -78.87831 | 20999 ft | 395 kts | 105° |
| 2026-05-05 20:45 | 25.36763 | -78.82077 | 20019 ft | 389 kts | 105° |
| 2026-05-05 20:45 | 25.36005 | -78.79227 | 19510 ft | 383 kts | 105° |
| 2026-05-05 20:45 | 25.35257 | -78.76415 | 18960 ft | 379 kts | 105° |
| 2026-05-05 20:46 | 25.34516 | -78.73634 | 18446 ft | 375 kts | 105° |
| 2026-05-05 20:46 | 25.33781 | -78.70879 | 17862 ft | 371 kts | 105° |
| 2026-05-05 20:46 | 25.33056 | -78.68160 | 17260 ft | 367 kts | 105° |
| 2026-05-05 20:46 | 25.32340 | -78.65481 | 16883 ft | 358 kts | 106° |
| 2026-05-05 20:47 | 25.31640 | -78.62860 | 16580 ft | 354 kts | 106° |
| 2026-05-05 20:47 | 25.30945 | -78.60259 | 16249 ft | 352 kts | 106° |
| 2026-05-05 20:47 | 25.30252 | -78.57671 | 15906 ft | 350 kts | 106° |
| 2026-05-05 20:47 | 25.29563 | -78.55095 | 15560 ft | 349 kts | 107° |
| 2026-05-05 20:48 | 25.28875 | -78.52528 | 15213 ft | 348 kts | 107° |
| 2026-05-05 20:48 | 25.28189 | -78.49969 | 14869 ft | 347 kts | 107° |
| 2026-05-05 20:48 | 25.27516 | -78.47453 | 14517 ft | 346 kts | 106° |
| 2026-05-05 20:48 | 25.27195 | -78.44830 | 14097 ft | 347 kts | 86° |
| 2026-05-05 20:49 | 25.27453 | -78.42187 | 13747 ft | 345 kts | 83° |
| 2026-05-05 20:49 | 25.27731 | -78.39555 | 13383 ft | 343 kts | 82° |
| 2026-05-05 20:49 | 25.28018 | -78.36941 | 13025 ft | 342 kts | 82° |
| 2026-05-05 20:49 | 25.28308 | -78.34338 | 12670 ft | 340 kts | 82° |
| 2026-05-05 20:50 | 25.28599 | -78.31749 | 12327 ft | 339 kts | 82° |
| 2026-05-05 20:50 | 25.28890 | -78.29165 | 11981 ft | 338 kts | 83° |
| 2026-05-05 20:50 | 25.29178 | -78.26596 | 11630 ft | 336 kts | 83° |
| 2026-05-05 20:50 | 25.29466 | -78.24035 | 11284 ft | 335 kts | 83° |
| 2026-05-05 20:51 | 25.29754 | -78.21480 | 10935 ft | 335 kts | 83° |
| 2026-05-05 20:51 | 25.29993 | -78.18927 | 10573 ft | 334 kts | 91° |
| 2026-05-05 20:51 | 25.29642 | -78.16408 | 10239 ft | 330 kts | 105° |
| 2026-05-05 20:51 | 25.29163 | -78.13991 | 10100 ft | 322 kts | 104° |
| 2026-05-05 20:52 | 25.28696 | -78.11607 | 9955 ft | 314 kts | 104° |
| 2026-05-05 20:52 | 25.28232 | -78.09251 | 9626 ft | 313 kts | 104° |
| 2026-05-05 20:52 | 25.27768 | -78.06900 | 9258 ft | 313 kts | 104° |
| 2026-05-05 20:52 | 25.27304 | -78.04551 | 8917 ft | 313 kts | 104° |
| 2026-05-05 20:53 | 25.26839 | -78.02206 | 8573 ft | 312 kts | 104° |
| 2026-05-05 20:53 | 25.26376 | -77.99871 | 8254 ft | 311 kts | 104° |
| 2026-05-05 20:53 | 25.25914 | -77.97544 | 7924 ft | 310 kts | 104° |
| 2026-05-05 20:53 | 25.25454 | -77.95225 | 7594 ft | 309 kts | 103° |
| 2026-05-05 20:54 | 25.24994 | -77.92913 | 7273 ft | 308 kts | 103° |
| 2026-05-05 20:54 | 25.24535 | -77.90606 | 6947 ft | 307 kts | 103° |
| 2026-05-05 20:54 | 25.24077 | -77.88304 | 6613 ft | 306 kts | 103° |
| 2026-05-05 20:54 | 25.23619 | -77.86007 | 6279 ft | 306 kts | 103° |
| 2026-05-05 20:55 | 25.23162 | -77.83721 | 5927 ft | 305 kts | 103° |
| 2026-05-05 20:55 | 25.22706 | -77.81437 | 5599 ft | 304 kts | 103° |
| 2026-05-05 20:55 | 25.22252 | -77.79163 | 5271 ft | 303 kts | 103° |
| 2026-05-05 20:55 | 25.21799 | -77.76900 | 4957 ft | 301 kts | 103° |
| 2026-05-05 20:56 | 25.21352 | -77.74667 | 4770 ft | 294 kts | 103° |
| 2026-05-05 20:56 | 25.20916 | -77.72490 | 4627 ft | 286 kts | 103° |
| 2026-05-05 20:56 | 25.20492 | -77.70374 | 4477 ft | 278 kts | 103° |
| 2026-05-05 20:56 | 25.20080 | -77.68319 | 4326 ft | 270 kts | 103° |
| 2026-05-05 20:57 | 25.19678 | -77.66320 | 4143 ft | 262 kts | 103° |
| 2026-05-05 20:57 | 25.19286 | -77.64382 | 3853 ft | 253 kts | 105° |
| 2026-05-05 20:57 | 25.18576 | -77.62659 | 3569 ft | 242 kts | 127° |
| 2026-05-05 20:57 | 25.17495 | -77.61284 | 3302 ft | 233 kts | 136° |
| 2026-05-05 20:58 | 25.16393 | -77.60071 | 3032 ft | 218 kts | 137° |
| 2026-05-05 20:58 | 25.15379 | -77.58949 | 2864 ft | 193 kts | 136° |
| 2026-05-05 20:58 | 25.14493 | -77.57966 | 2642 ft | 169 kts | 136° |
| 2026-05-05 20:58 | 25.13692 | -77.57074 | 2408 ft | 161 kts | 136° |
| 2026-05-05 20:59 | 25.12908 | -77.56200 | 2182 ft | 159 kts | 137° |
| 2026-05-05 20:59 | 25.12135 | -77.55337 | 1973 ft | 157 kts | 136° |
| 2026-05-05 20:59 | 25.11369 | -77.54481 | 1766 ft | 156 kts | 136° |
| 2026-05-05 20:59 | 25.10606 | -77.53631 | 1546 ft | 156 kts | 137° |
| 2026-05-05 21:00 | 25.09843 | -77.52778 | 1343 ft | 156 kts | 136° |
| 2026-05-05 21:00 | 25.09084 | -77.51928 | 1152 ft | 155 kts | 137° |
| 2026-05-05 21:00 | 25.08329 | -77.51086 | 945 ft | 153 kts | 137° |
| 2026-05-05 21:00 | 25.07584 | -77.50250 | 753 ft | 152 kts | 135° |
| 2026-05-05 21:01 | 25.07088 | -77.49703 | 648 ft | 152 kts | 136° |
| 2026-05-05 21:01 | 25.06353 | -77.48866 | 436 ft | 150 kts | 136° |
| 2026-05-05 21:01 | 25.05631 | -77.48066 | 220 ft | 145 kts | 139° |
| 2026-05-05 21:01 | 25.04714 | -77.47049 | 24 ft | 121 kts | 137° |
| 2026-05-05 21:02 | 25.04386 | -77.46691 | 23 ft | 75 kts | 135° |
| 2026-05-05 21:02 | 25.04168 | -77.46415 | 19 ft | 41 kts | 122° |
| 2026-05-05 21:02 | 25.04097 | -77.46205 | 20 ft | 16 kts | 90° |
| 2026-05-05 21:02 | 25.04170 | -77.46184 | 19 ft | 13 kts | 315° |
| 2026-05-05 21:03 | 25.04238 | -77.46268 | 19 ft | 16 kts | 311° |
| 2026-05-05 21:03 | 25.04321 | -77.46354 | 19 ft | 16 kts | 331° |
| 2026-05-05 21:03 | 25.04403 | -77.46442 | 19 ft | 18 kts | 309° |
| 2026-05-05 21:03 | 25.04493 | -77.46549 | 20 ft | 20 kts | 316° |
| 2026-05-05 21:04 | 25.04596 | -77.46660 | 22 ft | 22 kts | 311° |
| 2026-05-05 21:04 | 25.04693 | -77.46740 | 20 ft | 13 kts | 10° |
| 2026-05-05 21:04 | 25.04732 | -77.46713 | 20 ft | 4 kts | 39° |
| 2026-05-05 21:04 | 25.04741 | -77.46677 | 19 ft | 6 kts | 91° |
| 2026-05-05 21:05 | 25.04758 | -77.46661 | 19 ft | 2 kts | 330° |
| 2026-05-05 21:05 | 25.04760 | -77.46671 | 19 ft | 1 kts | 269° |
| 2026-05-05 21:05 | 25.04746 | -77.46690 | 19 ft | 7 kts | 230° |
| 2026-05-05 21:05 | 25.04709 | -77.46765 | 20 ft | 12 kts | 273° |
| 2026-05-05 21:06 | 25.04735 | -77.46812 | 21 ft | 8 kts | 315° |
| 2026-05-05 21:06 | 25.04739 | -77.46816 | 20 ft | 0 kts | 315° |
| 2026-05-05 21:06 | 25.04739 | -77.46817 | 20 ft | 1 kts | 315° |
| 2026-05-05 21:06 | 25.04752 | -77.46830 | 25 ft | 5 kts | 315° |
| 2026-05-05 21:07 | 25.04783 | -77.46865 | 20 ft | 8 kts | 315° |
| 2026-05-05 21:07 | 25.04830 | -77.46918 | 22 ft | 11 kts | 313° |
| 2026-05-05 21:07 | 25.04901 | -77.46943 | 20 ft | 11 kts | 23° |
| 2026-05-05 21:07 | 25.04975 | -77.46885 | 21 ft | 15 kts | 63° |
| 2026-05-05 21:08 | 25.05009 | -77.46806 | 19 ft | 8 kts | 54° |
| 2026-05-05 21:08 | 25.05039 | -77.46798 | 19 ft | 5 kts | 354° |
| 2026-05-05 21:08 | 25.05065 | -77.46802 | 19 ft | 4 kts | 348° |
| 2026-05-05 21:08 | 25.05076 | -77.46805 | 19 ft | 1 kts | 348° |